Time;durP1;ratioP1;P1;durP2;ratioP2;P2;SDS_P1;SDS_P2;PMS_P1;PMS_P2;Temp;Humidity;BMP_temperature;BMP_pressure;BME280_temperature;BME280_humidity;BME280_pressure;Samples;Min_cycle;Max_cycle;Signal;HPM_P1;HPM_P2
2021/03/21 00:02:24;;;;;;;20.27;14.37;;;6.50;99.90;;;;;;5020780;28;20435;-72
2021/03/21 00:04:50;;;;;;;21.47;14.50;;;6.40;99.90;;;;;;5017103;28;20182;-72
2021/03/21 00:07:15;;;;;;;19.93;14.07;;;6.40;99.90;;;;;;5017759;28;20204;-72
2021/03/21 00:09:41;;;;;;;21.10;15.20;;;6.60;99.90;;;;;;5016151;28;20168;-72
2021/03/21 00:12:07;;;;;;;22.93;16.60;;;6.60;99.90;;;;;;5016609;28;20604;-72
2021/03/21 00:14:33;;;;;;;23.80;16.07;;;6.60;99.90;;;;;;5016507;28;20175;-72
2021/03/21 00:16:59;;;;;;;21.27;15.27;;;6.60;99.90;;;;;;5017705;28;20414;-71
2021/03/21 00:19:25;;;;;;;21.70;14.87;;;6.50;99.90;;;;;;5016032;28;20163;-71
2021/03/21 00:21:50;;;;;;;19.20;15.97;;;6.50;99.90;;;;;;5016638;28;20640;-72
2021/03/21 00:24:16;;;;;;;19.80;15.20;;;6.40;99.90;;;;;;5016283;28;20403;-72
2021/03/21 00:26:41;;;;;;;21.67;15.50;;;6.50;99.90;;;;;;5017369;28;20244;-71
2021/03/21 00:29:07;;;;;;;20.20;14.97;;;6.60;99.90;;;;;;5015507;28;20171;-72
2021/03/21 00:31:33;;;;;;;20.47;15.90;;;6.60;99.90;;;;;;5015361;28;20192;-72
2021/03/21 00:33:58;;;;;;;20.60;14.10;;;6.70;99.90;;;;;;5015915;28;20560;-72
2021/03/21 00:36:24;;;;;;;20.87;16.43;;;6.50;99.90;;;;;;5015890;28;20226;-72
2021/03/21 00:38:52;;;;;;;22.20;17.00;;;6.40;99.90;;;;;;5016495;28;20274;-72
2021/03/21 00:41:21;;;;;;;23.03;16.10;;;6.50;99.90;;;;;;5014906;28;20578;-72
2021/03/21 00:43:47;;;;;;;21.17;17.13;;;6.40;99.90;;;;;;5015677;28;20415;-72
2021/03/21 00:46:13;;;;;;;22.73;16.97;;;6.40;99.90;;;;;;5015661;28;20489;-72
2021/03/21 00:48:42;;;;;;;23.13;17.03;;;6.40;99.90;;;;;;5014491;28;21030;-72
2021/03/21 00:51:09;;;;;;;25.93;18.80;;;6.50;99.90;;;;;;5014827;28;20187;-72
2021/03/21 00:53:35;;;;;;;21.70;16.80;;;6.50;99.90;;;;;;5014870;28;20532;-72
2021/03/21 00:56:01;;;;;;;20.33;14.67;;;6.60;99.90;;;;;;5015501;28;20402;-72
2021/03/21 00:58:26;;;;;;;22.53;17.40;;;6.50;99.90;;;;;;5015259;28;20441;-71
2021/03/21 01:00:55;;;;;;;25.50;16.33;;;6.30;99.90;;;;;;5015472;28;20207;-71
2021/03/21 01:03:21;;;;;;;22.33;16.70;;;6.30;99.90;;;;;;5016304;28;20510;-71
2021/03/21 01:05:53;;;;;;;24.97;17.10;;;6.10;99.90;;;;;;5016536;28;20411;-71
2021/03/21 01:08:26;;;;;;;25.50;17.67;;;6.20;99.90;;;;;;5015529;28;20418;-72
2021/03/21 01:11:01;;;;;;;23.73;17.13;;;6.20;99.90;;;;;;5023039;28;20439;-71
2021/03/21 01:13:28;;;;;;;25.90;18.00;;;6.30;99.90;;;;;;5034529;28;20469;-71
2021/03/21 01:15:53;;;;;;;26.80;18.73;;;6.40;99.90;;;;;;5021919;28;20429;-71
2021/03/21 01:18:23;;;;;;;25.70;17.80;;;6.40;99.90;;;;;;5026081;28;20410;-71
2021/03/21 01:20:49;;;;;;;24.73;18.27;;;6.40;99.90;;;;;;5038277;28;20481;-71
2021/03/21 01:23:15;;;;;;;23.40;18.00;;;6.60;99.90;;;;;;5036549;28;20431;-71
2021/03/21 01:25:41;;;;;;;29.63;21.57;;;6.60;99.90;;;;;;5014796;28;20196;-71
2021/03/21 01:28:26;;;;;;;28.57;19.40;;;6.70;99.90;;;;;;5014940;28;20908;-71
2021/03/21 01:30:55;;;;;;;25.30;18.40;;;6.60;99.90;;;;;;5014384;28;20509;-70
2021/03/21 01:33:21;;;;;;;23.83;17.97;;;6.60;99.90;;;;;;5013545;28;20517;-72
2021/03/21 01:35:49;;;;;;;24.10;17.43;;;6.70;99.90;;;;;;5015514;28;20492;-71
2021/03/21 01:38:15;;;;;;;28.07;18.70;;;6.70;99.90;;;;;;5014072;28;20415;-71
2021/03/21 01:40:42;;;;;;;28.57;20.43;;;6.80;99.90;;;;;;5014011;28;20462;-71
2021/03/21 01:43:13;;;;;;;26.90;18.70;;;6.70;99.90;;;;;;5014980;28;20461;-71
2021/03/21 01:45:46;;;;;;;28.03;19.90;;;6.80;99.90;;;;;;5014822;28;20904;-71
2021/03/21 01:48:34;;;;;;;26.40;18.53;;;6.80;99.90;;;;;;5015319;28;20432;-71
2021/03/21 01:51:11;;;;;;;26.50;19.67;;;6.80;99.90;;;;;;5014718;28;20433;-71
2021/03/21 01:53:39;;;;;;;31.30;20.97;;;6.80;99.90;;;;;;5013898;28;20473;-71
2021/03/21 01:56:06;;;;;;;29.23;19.70;;;6.90;99.90;;;;;;5014274;28;20911;-71
2021/03/21 01:58:34;;;;;;;34.53;22.43;;;6.90;99.90;;;;;;5015166;28;20431;-71
2021/03/21 02:01:04;;;;;;;32.27;21.00;;;6.70;99.90;;;;;;5014530;28;20465;-71
2021/03/21 02:03:30;;;;;;;35.60;22.90;;;6.70;99.90;;;;;;5014586;28;20407;-71
2021/03/21 02:06:11;;;;;;;34.77;23.43;;;6.70;99.90;;;;;;5013946;28;20819;-71
2021/03/21 02:08:54;;;;;;;34.20;21.97;;;6.70;99.90;;;;;;5014896;28;20213;-71
2021/03/21 02:11:40;;;;;;;34.13;22.23;;;6.70;99.90;;;;;;5014407;28;20430;-71
2021/03/21 02:14:38;;;;;;;36.40;23.27;;;6.60;99.90;;;;;;5013711;28;20776;-71
2021/03/21 02:17:16;;;;;;;39.17;25.33;;;6.70;99.90;;;;;;5012591;28;20908;-71
2021/03/21 02:20:03;;;;;;;37.77;23.40;;;6.60;99.90;;;;;;5014801;28;20434;-71
2021/03/21 02:22:34;;;;;;;42.50;26.07;;;6.70;99.90;;;;;;5014169;28;20485;-72
2021/03/21 02:25:15;;;;;;;41.17;25.40;;;6.70;99.90;;;;;;5013619;28;20402;-71
2021/03/21 02:28:17;;;;;;;37.63;24.47;;;6.60;99.90;;;;;;5012724;28;20406;-71
2021/03/21 02:30:47;;;;;;;37.70;23.70;;;6.40;99.90;;;;;;5014673;28;20437;-71
2021/03/21 02:33:26;;;;;;;36.80;22.57;;;6.30;99.90;;;;;;5013451;28;20512;-72
2021/03/21 02:35:55;;;;;;;38.50;25.50;;;6.20;99.90;;;;;;5013896;28;20485;-71
2021/03/21 02:38:30;;;;;;;39.20;24.27;;;6.20;99.90;;;;;;5016839;28;20414;-71
2021/03/21 02:41:07;;;;;;;33.43;22.20;;;6.30;99.90;;;;;;5031803;28;20820;-71
2021/03/21 02:43:50;;;;;;;36.43;24.17;;;6.30;99.90;;;;;;5038345;28;20415;-71
2021/03/21 02:46:41;;;;;;;34.87;23.80;;;6.30;99.90;;;;;;5037230;28;20405;-71
2021/03/21 02:49:27;;;;;;;28.50;19.30;;;6.30;99.90;;;;;;5036353;28;20453;-71
2021/03/21 02:51:58;;;;;;;30.93;18.90;;;6.30;99.90;;;;;;5034043;28;20433;-71
2021/03/21 02:54:31;;;;;;;26.40;17.03;;;6.30;99.90;;;;;;5037349;28;20432;-72
2021/03/21 02:57:08;;;;;;;27.13;18.20;;;6.30;99.90;;;;;;5037419;28;20957;-71
2021/03/21 02:59:43;;;;;;;28.50;17.70;;;6.40;99.90;;;;;;5035650;28;20413;-72
2021/03/21 03:02:19;;;;;;;25.70;16.57;;;6.40;99.90;;;;;;5037404;28;20437;-71
2021/03/21 03:04:52;;;;;;;24.13;16.43;;;6.40;99.90;;;;;;5037269;28;20825;-71
2021/03/21 03:07:28;;;;;;;25.17;17.43;;;6.40;99.90;;;;;;5035902;28;20778;-71
2021/03/21 03:09:57;;;;;;;25.23;16.80;;;6.50;99.90;;;;;;5035131;28;20799;-72
2021/03/21 03:12:35;;;;;;;23.80;15.00;;;6.40;99.90;;;;;;5037327;28;20464;-72
2021/03/21 03:15:10;;;;;;;25.10;16.53;;;6.40;99.90;;;;;;5037168;28;20816;-71
2021/03/21 03:17:56;;;;;;;25.97;16.37;;;6.30;99.90;;;;;;5036804;28;20417;-71
2021/03/21 03:20:40;;;;;;;24.93;14.27;;;6.20;99.90;;;;;;5035274;28;20843;-71
2021/03/21 03:23:24;;;;;;;25.60;16.60;;;6.20;99.90;;;;;;5036953;28;20421;-71
2021/03/21 03:26:00;;;;;;;24.43;15.10;;;6.30;99.90;;;;;;5036629;28;20406;-70
2021/03/21 03:28:35;;;;;;;21.57;13.87;;;6.20;99.90;;;;;;5036553;28;20436;-71
2021/03/21 03:31:11;;;;;;;20.20;13.70;;;6.10;99.90;;;;;;5035028;28;20453;-71
2021/03/21 03:33:38;;;;;;;19.57;13.77;;;6.10;99.90;;;;;;5036691;28;20510;-71
2021/03/21 03:36:07;;;;;;;21.40;13.63;;;6.20;99.90;;;;;;5036643;28;20896;-71
2021/03/21 03:38:35;;;;;;;19.70;13.80;;;6.00;99.90;;;;;;5036412;28;20421;-71
2021/03/21 03:41:07;;;;;;;19.70;12.90;;;5.90;99.90;;;;;;5034371;28;20468;-71
2021/03/21 03:43:57;;;;;;;22.07;14.40;;;6.00;99.90;;;;;;5036871;28;20501;-71
2021/03/21 03:46:53;;;;;;;17.93;12.90;;;6.00;99.90;;;;;;5036276;28;20859;-71
2021/03/21 03:49:54;;;;;;;21.73;13.77;;;6.00;99.90;;;;;;5035930;28;20409;-71
2021/03/21 03:52:52;;;;;;;19.90;12.87;;;6.00;99.90;;;;;;5034671;28;20468;-71
2021/03/21 03:55:46;;;;;;;18.77;12.20;;;6.10;99.90;;;;;;5036364;28;20499;-71
2021/03/21 03:58:21;;;;;;;19.53;13.70;;;6.20;99.90;;;;;;5036348;28;20854;-71
2021/03/21 04:01:03;;;;;;;22.77;15.97;;;6.20;99.90;;;;;;5035988;28;20739;-72
2021/03/21 04:03:43;;;;;;;23.27;15.80;;;6.20;99.90;;;;;;5034424;28;20437;-71
2021/03/21 04:06:12;;;;;;;24.83;16.17;;;6.20;99.90;;;;;;5035884;28;20441;-71
2021/03/21 04:08:55;;;;;;;20.17;13.83;;;6.20;99.90;;;;;;5035189;28;20410;-71
2021/03/21 04:11:35;;;;;;;22.13;15.17;;;6.10;99.90;;;;;;5035717;28;20430;-71
2021/03/21 04:14:11;;;;;;;23.13;14.47;;;6.00;99.90;;;;;;5033632;28;20552;-71
2021/03/21 04:16:46;;;;;;;23.93;15.90;;;6.00;99.90;;;;;;5034920;28;20418;-71
2021/03/21 04:19:13;;;;;;;21.17;15.03;;;5.90;99.90;;;;;;5035461;28;20495;-71
2021/03/21 04:22:09;;;;;;;21.70;13.73;;;5.90;99.90;;;;;;5035637;28;20443;-71
2021/03/21 04:24:48;;;;;;;20.30;13.87;;;5.90;99.90;;;;;;5032693;28;20435;-71
2021/03/21 04:27:19;;;;;;;22.43;12.77;;;5.90;99.90;;;;;;5034202;28;20436;-71
2021/03/21 04:29:56;;;;;;;23.40;14.80;;;5.80;99.90;;;;;;5034001;28;20457;-71
2021/03/21 04:32:28;;;;;;;22.40;14.20;;;5.70;99.90;;;;;;5015248;28;20982;-71
2021/03/21 04:35:01;;;;;;;23.67;15.60;;;5.80;99.90;;;;;;5015682;28;20517;-71
2021/03/21 04:37:28;;;;;;;25.13;16.70;;;5.80;99.90;;;;;;5016546;28;20414;-71
2021/03/21 04:39:55;;;;;;;26.60;16.50;;;5.80;99.90;;;;;;5016902;28;20525;-72
2021/03/21 04:42:40;;;;;;;26.50;16.70;;;5.80;99.90;;;;;;5016332;28;20543;-71
2021/03/21 04:45:09;;;;;;;25.27;16.97;;;5.80;99.90;;;;;;5023423;28;20425;-71
2021/03/21 04:47:57;;;;;;;25.07;16.20;;;5.70;99.90;;;;;;5037515;28;20426;-71
2021/03/21 04:50:23;;;;;;;25.60;16.30;;;5.60;99.90;;;;;;5021324;28;20421;-71
2021/03/21 04:52:58;;;;;;;26.83;16.70;;;5.60;99.90;;;;;;5029967;28;20485;-71
2021/03/21 04:55:48;;;;;;;25.60;15.80;;;5.60;99.90;;;;;;5038360;28;20437;-72
2021/03/21 04:58:37;;;;;;;23.83;16.30;;;5.70;99.90;;;;;;5008775;28;20806;-71
2021/03/21 05:01:19;;;;;;;25.00;16.87;;;5.70;99.90;;;;;;4995118;28;20446;-70
2021/03/21 05:03:51;;;;;;;26.73;16.50;;;5.70;99.90;;;;;;4995571;28;20415;-70
2021/03/21 05:06:23;;;;;;;29.10;18.00;;;5.70;99.90;;;;;;4997633;28;20450;-71
2021/03/21 05:08:58;;;;;;;27.90;18.23;;;5.70;99.90;;;;;;5011261;28;20442;-71
2021/03/21 05:11:35;;;;;;;30.50;18.37;;;5.70;99.90;;;;;;5012758;28;20548;-71
2021/03/21 05:14:04;;;;;;;28.90;18.67;;;5.70;99.90;;;;;;5012700;28;20458;-70
2021/03/21 05:16:46;;;;;;;31.97;20.57;;;5.70;99.90;;;;;;5012804;28;20406;-71
2021/03/21 05:19:20;;;;;;;35.63;20.70;;;5.60;99.90;;;;;;5012324;28;20955;-71
2021/03/21 05:21:55;;;;;;;33.23;20.23;;;5.60;99.90;;;;;;5014288;28;20422;-71
2021/03/21 05:24:37;;;;;;;30.03;18.90;;;5.60;99.90;;;;;;5014601;28;20896;-71
2021/03/21 05:27:10;;;;;;;34.40;19.13;;;5.60;99.90;;;;;;5014609;28;20409;-71
2021/03/21 05:29:57;;;;;;;31.77;19.73;;;5.60;99.90;;;;;;5014399;28;20799;-71
2021/03/21 05:32:24;;;;;;;32.20;18.83;;;5.60;99.90;;;;;;5013206;28;20461;-71
2021/03/21 05:34:52;;;;;;;28.80;19.50;;;5.60;99.90;;;;;;5014410;28;20452;-71
2021/03/21 05:37:34;;;;;;;29.20;18.33;;;5.60;99.90;;;;;;5030947;28;20412;-71
2021/03/21 05:40:12;;;;;;;33.27;18.23;;;5.70;99.90;;;;;;5033394;28;20437;-70
2021/03/21 05:42:53;;;;;;;27.40;17.43;;;5.70;99.90;;;;;;5034007;28;20435;-70
2021/03/21 05:45:32;;;;;;;27.17;17.13;;;5.70;99.90;;;;;;5033817;28;20500;-71
2021/03/21 05:48:05;;;;;;;29.00;16.07;;;5.70;99.90;;;;;;5030683;28;20524;-71
2021/03/21 05:50:55;;;;;;;30.93;19.03;;;5.60;99.90;;;;;;5033776;28;20785;-71
2021/03/21 05:54:06;;;;;;;28.47;17.80;;;5.70;99.90;;;;;;5033945;28;20502;-71
2021/03/21 05:57:16;;;;;;;27.97;17.40;;;5.80;99.90;;;;;;5032162;28;20433;-71
2021/03/21 06:00:14;;;;;;;27.43;17.00;;;5.80;99.90;;;;;;5034263;28;20402;-71
2021/03/21 06:02:39;;;;;;;26.60;17.10;;;5.90;99.90;;;;;;5006402;28;20444;-71
2021/03/21 06:05:30;;;;;;;26.43;15.90;;;5.90;99.90;;;;;;5033840;28;20410;-71
2021/03/21 06:08:09;;;;;;;25.70;16.10;;;5.90;99.90;;;;;;5025517;28;20183;-71
2021/03/21 06:10:43;;;;;;;25.57;16.30;;;5.80;99.90;;;;;;5005599;28;20465;-71
2021/03/21 06:13:30;;;;;;;25.17;16.80;;;5.80;99.90;;;;;;5005139;28;20454;-71
2021/03/21 06:16:29;;;;;;;25.93;14.93;;;5.90;99.90;;;;;;5002830;28;20766;-71
2021/03/21 06:19:18;;;;;;;23.57;14.17;;;5.90;99.90;;;;;;5004385;28;20422;-72
2021/03/21 06:22:21;;;;;;;21.00;13.70;;;6.00;99.90;;;;;;5004952;28;20463;-71
2021/03/21 06:24:52;;;;;;;22.40;12.97;;;5.90;99.90;;;;;;5004175;28;20481;-71
2021/03/21 06:27:18;;;;;;;23.30;15.13;;;5.90;99.90;;;;;;5005014;28;20488;-71
2021/03/21 06:30:00;;;;;;;22.63;14.37;;;5.80;99.90;;;;;;5007093;28;20932;-71
2021/03/21 06:32:35;;;;;;;26.93;15.50;;;5.80;99.90;;;;;;5003415;28;20204;-69
2021/03/21 06:35:37;;;;;;;26.47;15.70;;;5.80;99.90;;;;;;5012837;28;20410;-70
2021/03/21 06:38:40;;;;;;;26.17;16.60;;;5.90;99.90;;;;;;5011839;28;20410;-71
2021/03/21 06:41:23;;;;;;;26.60;16.43;;;5.90;99.90;;;;;;5013354;28;20474;-72
2021/03/21 06:44:02;;;;;;;23.10;15.73;;;5.90;99.90;;;;;;5013711;28;20411;-70
2021/03/21 06:47:05;;;;;;;23.00;15.67;;;5.90;99.90;;;;;;5013901;28;20480;-71
2021/03/21 06:50:01;;;;;;;25.83;15.50;;;5.90;99.90;;;;;;5004917;28;20444;-71
2021/03/21 06:52:43;;;;;;;21.97;15.23;;;6.00;99.90;;;;;;5013867;28;20536;-71
2021/03/21 06:55:35;;;;;;;21.27;14.57;;;6.00;99.90;;;;;;5013817;28;20406;-71
2021/03/21 06:58:10;;;;;;;19.33;13.83;;;6.10;99.90;;;;;;5013661;28;20402;-71
2021/03/21 07:00:52;;;;;;;21.87;14.67;;;6.10;99.90;;;;;;5014563;28;20472;-71
2021/03/21 07:03:59;;;;;;;17.17;12.63;;;6.20;99.90;;;;;;5013555;28;20418;-72
2021/03/21 07:06:43;;;;;;;16.03;12.03;;;6.20;99.90;;;;;;5013637;28;20411;-71
2021/03/21 07:09:39;;;;;;;16.73;12.30;;;6.20;99.90;;;;;;5013126;28;20517;-71
2021/03/21 07:12:35;;;;;;;16.30;11.03;;;6.30;99.90;;;;;;5013448;28;20446;-71
2021/03/21 07:15:32;;;;;;;17.40;11.70;;;6.30;99.90;;;;;;5014259;28;20409;-71
2021/03/21 07:18:20;;;;;;;16.47;11.97;;;6.40;99.90;;;;;;4991776;28;20443;-71
2021/03/21 07:21:15;;;;;;;18.50;11.50;;;6.40;99.90;;;;;;4992025;28;20466;-71
2021/03/21 07:24:10;;;;;;;15.67;10.60;;;6.40;99.90;;;;;;4993309;28;20437;-72
2021/03/21 07:27:06;;;;;;;13.77;9.90;;;6.50;99.90;;;;;;4996276;28;20414;-71
2021/03/21 07:29:51;;;;;;;14.17;10.00;;;6.40;99.90;;;;;;4996112;28;20840;-72
2021/03/21 07:32:50;;;;;;;13.73;10.07;;;6.40;99.90;;;;;;4994848;28;20983;-71
2021/03/21 07:35:45;;;;;;;16.27;9.43;;;6.40;99.90;;;;;;4975119;28;20461;-72
2021/03/21 07:38:24;;;;;;;15.77;9.70;;;6.30;99.90;;;;;;4963489;28;20420;-72
2021/03/21 07:41:11;;;;;;;13.43;9.37;;;6.40;99.90;;;;;;4970100;28;20550;-72
2021/03/21 07:44:03;;;;;;;13.10;9.67;;;6.40;99.90;;;;;;4988032;28;20442;-72
2021/03/21 07:46:38;;;;;;;14.77;10.60;;;6.40;99.90;;;;;;4980534;28;20435;-72
2021/03/21 07:49:12;;;;;;;12.27;9.40;;;6.40;99.90;;;;;;4974011;28;21095;-72
2021/03/21 07:51:43;;;;;;;13.17;9.67;;;6.30;99.90;;;;;;4974547;28;20471;-72
2021/03/21 07:54:46;;;;;;;15.27;11.77;;;6.40;99.90;;;;;;4998234;28;20469;-72
2021/03/21 07:57:33;;;;;;;13.30;9.50;;;6.40;99.90;;;;;;5015932;28;20483;-72
2021/03/21 08:00:01;;;;;;;12.40;9.40;;;6.40;99.90;;;;;;5025765;28;20510;-72
2021/03/21 08:02:27;;;;;;;11.30;8.90;;;6.40;99.90;;;;;;5022859;28;20436;-73
2021/03/21 08:05:03;;;;;;;13.57;8.70;;;6.40;99.90;;;;;;5029181;28;20889;-72
2021/03/21 08:07:33;;;;;;;9.23;7.20;;;6.40;99.90;;;;;;5012541;28;20919;-71
2021/03/21 08:09:59;;;;;;;6.90;5.30;;;6.30;99.90;;;;;;5012950;28;20940;-71
2021/03/21 08:12:40;;;;;;;6.73;5.20;;;6.40;99.90;;;;;;5022150;28;20989;-71
2021/03/21 08:15:17;;;;;;;6.83;5.20;;;6.40;99.90;;;;;;5020231;28;20465;-71
2021/03/21 08:18:10;;;;;;;7.73;5.17;;;6.40;99.90;;;;;;5006423;28;20453;-72
2021/03/21 08:20:38;;;;;;;7.23;4.67;;;6.40;99.90;;;;;;5029544;28;20450;-73
2021/03/21 08:23:27;;;;;;;6.43;3.77;;;6.50;99.90;;;;;;5029422;28;20441;-72
2021/03/21 08:25:55;;;;;;;5.50;4.50;;;6.60;99.90;;;;;;5033230;28;20492;-72
2021/03/21 08:28:24;;;;;;;6.30;4.80;;;6.60;99.90;;;;;;5044280;28;20426;-72
2021/03/21 08:30:59;;;;;;;5.33;4.27;;;6.70;99.90;;;;;;5022459;28;20543;-72
2021/03/21 08:33:29;;;;;;;6.33;4.40;;;6.70;99.90;;;;;;5027554;28;21294;-72
2021/03/21 08:36:17;;;;;;;5.30;4.33;;;6.70;99.90;;;;;;5024147;28;20512;-72
2021/03/21 08:39:04;;;;;;;6.43;4.70;;;6.70;99.90;;;;;;5017985;28;20419;-72
2021/03/21 08:41:43;;;;;;;5.27;4.40;;;6.60;99.90;;;;;;5008734;28;20484;-73
2021/03/21 08:44:21;;;;;;;4.00;3.70;;;6.60;99.90;;;;;;5012371;28;20423;-71
2021/03/21 08:46:49;;;;;;;3.53;3.23;;;6.80;99.90;;;;;;5018384;28;20490;-72
2021/03/21 08:49:21;;;;;;;5.10;3.97;;;6.90;99.90;;;;;;5027865;28;20449;-72
2021/03/21 08:51:47;;;;;;;3.63;2.67;;;6.90;99.90;;;;;;5016336;28;20524;-73
2021/03/21 08:54:22;;;;;;;3.83;2.70;;;6.90;99.90;;;;;;5023271;28;20517;-72
2021/03/21 08:57:26;;;;;;;3.30;3.10;;;6.80;99.90;;;;;;5016375;28;20456;-72
2021/03/21 08:59:52;;;;;;;4.43;3.23;;;6.80;99.90;;;;;;5006575;28;20917;-73
2021/03/21 09:02:19;;;;;;;4.00;3.60;;;6.90;99.90;;;;;;5019166;28;20409;-71
2021/03/21 09:05:07;;;;;;;5.50;3.80;;;6.90;99.90;;;;;;5018511;28;20177;-72
2021/03/21 09:07:35;;;;;;;3.53;3.23;;;6.90;99.90;;;;;;5024478;28;20774;-73
2021/03/21 09:10:25;;;;;;;3.53;3.23;;;6.80;99.90;;;;;;5024073;28;20443;-73
2021/03/21 09:12:55;;;;;;;7.50;3.40;;;6.80;99.90;;;;;;5024708;28;20792;-73
2021/03/21 09:15:29;;;;;;;7.80;4.30;;;6.70;99.90;;;;;;5014655;28;20776;-73
2021/03/21 09:18:00;;;;;;;7.87;5.40;;;6.70;99.90;;;;;;5022220;28;20413;-72
2021/03/21 09:20:26;;;;;;;11.70;5.83;;;6.60;99.90;;;;;;5018943;28;20466;-74
2021/03/21 09:22:53;;;;;;;6.63;5.97;;;6.60;99.90;;;;;;5024381;28;20414;-73
2021/03/21 09:25:27;;;;;;;6.10;4.50;;;6.70;99.90;;;;;;5012538;28;20449;-73
2021/03/21 09:27:55;;;;;;;4.97;4.13;;;6.70;99.90;;;;;;5025386;28;20418;-72
2021/03/21 09:30:35;;;;;;;8.43;4.67;;;6.70;99.90;;;;;;5021613;28;20465;-73
2021/03/21 09:33:05;;;;;;;4.33;3.83;;;6.90;99.90;;;;;;5018181;28;20599;-72
2021/03/21 09:35:59;;;;;;;7.07;2.90;;;7.00;99.90;;;;;;5013395;28;20427;-72
2021/03/21 09:38:32;;;;;;;7.50;2.10;;;7.10;99.90;;;;;;5014509;28;20441;-73
2021/03/21 09:41:09;;;;;;;4.87;1.83;;;7.00;99.90;;;;;;5008824;28;20514;-71
2021/03/21 09:43:38;;;;;;;9.83;3.73;;;7.00;99.90;;;;;;5019592;28;20435;-72
2021/03/21 09:46:27;;;;;;;11.50;3.37;;;7.10;99.90;;;;;;5007802;28;20426;-72
2021/03/21 09:49:25;;;;;;;5.47;2.57;;;7.10;99.90;;;;;;5001280;28;20431;-73
2021/03/21 09:51:54;;;;;;;9.87;3.57;;;7.10;99.90;;;;;;5006015;28;20548;-73
2021/03/21 09:54:47;;;;;;;7.33;3.00;;;7.10;99.90;;;;;;5010786;28;20423;-73
2021/03/21 09:57:50;;;;;;;8.23;2.60;;;7.00;99.90;;;;;;5010160;28;20422;-71
2021/03/21 10:00:20;;;;;;;8.77;3.40;;;7.00;99.90;;;;;;5021135;28;20430;-71
2021/03/21 10:02:50;;;;;;;7.87;3.10;;;7.10;99.90;;;;;;5023097;28;21058;-73
2021/03/21 10:05:34;;;;;;;6.53;3.30;;;7.00;99.90;;;;;;5013658;28;20494;-73
2021/03/21 10:07:59;;;;;;;6.13;3.20;;;7.00;99.90;;;;;;5027206;28;20433;-73
2021/03/21 10:10:44;;;;;;;7.03;3.80;;;7.20;99.90;;;;;;5019615;28;20435;-72
2021/03/21 10:13:10;;;;;;;14.63;4.40;;;7.30;99.90;;;;;;5026375;28;20206;-72
2021/03/21 10:16:13;;;;;;;11.90;2.80;;;7.30;99.90;;;;;;5013581;28;20406;-72
2021/03/21 10:18:42;;;;;;;8.80;3.10;;;7.40;99.90;;;;;;5024951;28;20533;-73
2021/03/21 10:21:08;;;;;;;7.27;3.57;;;7.50;99.90;;;;;;5028831;28;20839;-72
2021/03/21 10:23:52;;;;;;;6.90;3.37;;;7.40;99.90;;;;;;5028106;28;20417;-71
2021/03/21 10:26:23;;;;;;;7.37;3.40;;;7.20;99.90;;;;;;5019291;28;20600;-72
2021/03/21 10:28:54;;;;;;;8.03;3.70;;;7.30;99.90;;;;;;5015029;28;20426;-72
2021/03/21 10:31:23;;;;;;;8.50;3.60;;;7.20;99.90;;;;;;5012847;28;20440;-72
2021/03/21 10:33:51;;;;;;;11.50;3.73;;;7.20;99.90;;;;;;5026270;28;20453;-72
2021/03/21 10:36:43;;;;;;;12.33;3.80;;;7.10;99.90;;;;;;5021321;28;20937;-72
2021/03/21 10:39:10;;;;;;;8.60;3.10;;;7.10;99.90;;;;;;5023585;28;20417;-72
2021/03/21 10:42:29;;;;;;;11.80;3.37;;;7.20;99.90;;;;;;5015362;28;20531;-72
2021/03/21 10:44:59;;;;;;;10.13;3.20;;;7.30;99.90;;;;;;4954297;28;20524;-72
2021/03/21 10:47:25;;;;;;;10.77;4.10;;;7.20;99.90;;;;;;4954746;28;20437;-74
2021/03/21 10:50:03;;;;;;;12.27;4.20;;;7.30;99.90;;;;;;4960816;28;20460;-74
2021/03/21 10:52:46;;;;;;;8.60;4.27;;;7.30;99.90;;;;;;4941404;29;20213;-72
2021/03/21 10:57:47;;;;;;;18.40;4.10;;;7.30;99.90;;;;;;4953311;28;20530;-73
2021/03/21 11:00:31;;;;;;;14.90;4.97;;;7.40;99.90;;;;;;4964135;28;20205;-73
2021/03/21 11:03:05;;;;;;;15.47;4.57;;;7.50;99.90;;;;;;4963698;28;20922;-73
2021/03/21 11:05:40;;;;;;;15.00;4.57;;;7.40;99.90;;;;;;4952742;28;20595;-71
2021/03/21 11:08:17;;;;;;;7.60;3.00;;;7.40;99.90;;;;;;4958253;28;20440;-73
2021/03/21 11:10:53;;;;;;;12.93;4.17;;;7.40;99.90;;;;;;4955350;28;20595;-73
2021/03/21 11:13:29;;;;;;;26.33;5.03;;;7.40;99.90;;;;;;4970813;28;20514;-73
2021/03/21 11:15:55;;;;;;;11.53;4.27;;;7.40;99.90;;;;;;4958206;28;20423;-72
2021/03/21 11:18:33;;;;;;;18.90;6.80;;;7.50;99.90;;;;;;4960777;28;20432;-72
2021/03/21 11:21:08;;;;;;;12.87;5.90;;;7.50;99.90;;;;;;5011074;28;20450;-72
2021/03/21 11:24:00;;;;;;;14.60;5.37;;;7.60;99.90;;;;;;5029578;28;20472;-71
2021/03/21 11:26:26;;;;;;;20.27;5.87;;;7.70;99.90;;;;;;5023439;28;20420;-71
2021/03/21 11:29:05;;;;;;;19.00;4.97;;;7.70;99.10;;;;;;5016854;28;20474;-71
2021/03/21 11:31:37;;;;;;;18.47;5.20;;;7.50;98.90;;;;;;5019603;28;20907;-72
2021/03/21 11:34:28;;;;;;;19.60;5.80;;;7.60;99.40;;;;;;5022439;28;20461;-72
2021/03/21 11:37:05;;;;;;;13.83;4.50;;;7.70;99.10;;;;;;5025829;28;21080;-71
2021/03/21 11:40:02;;;;;;;13.57;4.47;;;7.70;98.80;;;;;;5029164;28;20481;-72
2021/03/21 11:42:43;;;;;;;19.43;4.90;;;7.80;99.00;;;;;;5014127;28;20484;-72
2021/03/21 11:45:25;;;;;;;12.50;4.40;;;7.90;98.90;;;;;;5015688;28;20774;-73
2021/03/21 11:47:52;;;;;;;15.17;5.33;;;7.90;98.80;;;;;;5004713;28;20785;-72
2021/03/21 11:50:25;;;;;;;15.17;4.73;;;7.90;99.00;;;;;;5024836;28;20467;-73
2021/03/21 11:52:52;;;;;;;12.40;4.87;;;7.90;99.40;;;;;;5031313;28;20501;-73
2021/03/21 11:55:21;;;;;;;12.90;4.97;;;8.10;99.40;;;;;;5024882;28;20427;-72
2021/03/21 11:58:04;;;;;;;11.90;4.40;;;8.20;99.20;;;;;;5047137;28;20509;-72
2021/03/21 12:00:42;;;;;;;18.37;5.50;;;8.00;99.10;;;;;;5027853;28;20588;-74
2021/03/21 12:03:18;;;;;;;18.03;4.73;;;8.00;99.30;;;;;;5043769;28;20934;-73
2021/03/21 12:05:45;;;;;;;15.57;4.83;;;8.00;99.70;;;;;;5019021;28;20430;-72
2021/03/21 12:08:13;;;;;;;15.17;4.73;;;8.00;99.90;;;;;;5017085;28;20439;-73
2021/03/21 12:10:43;;;;;;;12.30;4.53;;;8.00;99.90;;;;;;5029069;28;20461;-73
2021/03/21 12:13:35;;;;;;;18.80;5.10;;;8.10;99.90;;;;;;5034451;28;20465;-71
2021/03/21 12:16:05;;;;;;;17.93;6.47;;;8.10;99.90;;;;;;5013493;28;20436;-73
2021/03/21 12:18:32;;;;;;;18.97;6.93;;;8.10;99.90;;;;;;5012171;28;20485;-72
2021/03/21 12:21:12;;;;;;;15.70;6.20;;;7.90;99.90;;;;;;5009375;28;20465;-73
2021/03/21 12:23:56;;;;;;;13.90;5.37;;;7.70;99.90;;;;;;5021431;28;20958;-71
2021/03/21 12:26:31;;;;;;;12.30;4.20;;;7.60;99.90;;;;;;5008167;28;20510;-71
2021/03/21 12:29:25;;;;;;;19.00;5.27;;;7.50;99.90;;;;;;5018331;28;20530;-72
2021/03/21 12:31:52;;;;;;;12.10;4.50;;;7.50;99.90;;;;;;5005516;28;20517;-72
2021/03/21 12:34:34;;;;;;;11.50;4.30;;;7.70;99.90;;;;;;5009764;28;21031;-73
2021/03/21 12:37:12;;;;;;;12.40;5.30;;;7.80;99.90;;;;;;5013694;28;20423;-73
2021/03/21 12:39:47;;;;;;;17.35;5.80;;;7.90;99.90;;;;;;5010488;28;20487;-73
2021/03/21 12:42:28;;;;;;;15.33;5.10;;;7.90;99.90;;;;;;5009167;28;20233;-73
2021/03/21 12:45:17;;;;;;;16.10;6.00;;;8.10;99.90;;;;;;5019921;28;21098;-72
2021/03/21 12:47:47;;;;;;;13.07;5.20;;;8.20;99.60;;;;;;5001000;28;20436;-73
2021/03/21 12:50:34;;;;;;;18.43;4.33;;;8.30;99.40;;;;;;5012768;28;20446;-73
2021/03/21 12:53:01;;;;;;;14.87;5.13;;;8.40;98.90;;;;;;5013642;28;20497;-71
2021/03/21 12:55:27;;;;;;;17.23;5.83;;;8.50;98.40;;;;;;5012607;28;20828;-70
2021/03/21 12:57:54;;;;;;;14.30;4.70;;;8.60;97.30;;;;;;5022887;28;20473;-73
2021/03/21 13:00:27;;;;;;;15.53;5.50;;;8.60;97.30;;;;;;5001577;28;20206;-73
2021/03/21 13:02:54;;;;;;;19.63;7.13;;;8.60;97.20;;;;;;5013525;28;20476;-71
2021/03/21 13:05:31;;;;;;;16.60;6.07;;;8.70;97.00;;;;;;5030157;28;20421;-71
2021/03/21 13:07:57;;;;;;;11.33;4.50;;;8.70;96.60;;;;;;5037305;28;20426;-72
2021/03/21 13:10:25;;;;;;;14.67;4.10;;;8.60;96.50;;;;;;5034174;28;20471;-71
2021/03/21 13:12:50;;;;;;;12.80;4.83;;;8.40;97.00;;;;;;5030916;28;20461;-72
2021/03/21 13:15:18;;;;;;;14.50;5.40;;;8.30;97.50;;;;;;5022344;28;20510;-71
2021/03/21 13:17:44;;;;;;;12.03;4.90;;;8.20;97.60;;;;;;5025188;28;20206;-72
2021/03/21 13:20:14;;;;;;;13.13;5.17;;;8.20;97.70;;;;;;5019836;28;20560;-74
2021/03/21 13:22:39;;;;;;;14.40;6.10;;;8.20;97.50;;;;;;5021413;28;20437;-72
2021/03/21 13:25:06;;;;;;;12.10;4.43;;;8.30;97.50;;;;;;5020112;28;20552;-72
2021/03/21 13:27:32;;;;;;;14.47;5.50;;;8.40;97.10;;;;;;5020818;28;20547;-71
2021/03/21 13:29:58;;;;;;;13.87;5.23;;;8.40;96.90;;;;;;5021039;28;20532;-72
2021/03/21 13:32:24;;;;;;;12.17;4.70;;;8.30;96.80;;;;;;5020693;28;20815;-71
2021/03/21 13:34:52;;;;;;;12.40;4.83;;;8.40;96.60;;;;;;5020702;28;21108;-72
2021/03/21 13:37:20;;;;;;;13.60;4.67;;;8.50;96.20;;;;;;5021077;28;20537;-73